createdAt,value
2023-05-19T00:02:07.557Z,10.62
2023-05-19T00:04:34.196Z,10.56
2023-05-19T00:07:00.766Z,10.54
2023-05-19T00:09:27.406Z,10.44
2023-05-19T00:11:54.025Z,10.41
2023-05-19T00:14:21.098Z,10.31
2023-05-19T00:16:47.732Z,10.36
2023-05-19T00:19:14.446Z,10.29
2023-05-19T00:21:40.898Z,10.33
2023-05-19T00:24:07.748Z,10.33
2023-05-19T00:26:34.275Z,10.24
2023-05-19T00:29:00.701Z,10.20
2023-05-19T00:31:27.091Z,10.15
2023-05-19T00:33:53.759Z,10.19
2023-05-19T00:36:20.111Z,10.19
2023-05-19T00:38:46.788Z,10.13
2023-05-19T00:41:13.228Z,10.10
2023-05-19T00:43:39.704Z,10.13
2023-05-19T00:46:06.246Z,10.05
2023-05-19T00:48:32.648Z,10.16
2023-05-19T00:51:00.752Z,10.07
2023-05-19T00:53:27.709Z,10.00
2023-05-19T00:55:54.124Z,9.90
2023-05-19T00:58:20.555Z,9.86
2023-05-19T01:00:47.049Z,9.86
2023-05-19T01:03:13.578Z,9.87
2023-05-19T01:05:41.307Z,9.84
2023-05-19T01:08:08.846Z,9.78
2023-05-19T01:10:35.243Z,9.83
2023-05-19T01:13:05.765Z,9.73
2023-05-19T01:15:50.434Z,9.72
2023-05-19T01:18:25.682Z,9.70
2023-05-19T01:21:02.535Z,9.67
2023-05-19T01:23:28.957Z,9.66
2023-05-19T01:26:11.541Z,9.60
2023-05-19T01:29:02.724Z,9.50
2023-05-19T01:31:32.062Z,9.44
2023-05-19T01:34:00.309Z,9.40
2023-05-19T01:36:27.737Z,9.36
2023-05-19T01:38:57.154Z,9.37
2023-05-19T01:41:25.141Z,9.37
2023-05-19T01:43:51.867Z,9.36
2023-05-19T01:46:19.263Z,9.38
2023-05-19T01:48:47.563Z,9.34
2023-05-19T01:51:14.098Z,9.34
2023-05-19T01:53:40.499Z,9.25
2023-05-19T01:56:07.555Z,9.28
2023-05-19T01:58:51.666Z,9.25
2023-05-19T02:01:32.140Z,9.24
2023-05-19T02:04:36.154Z,9.25
2023-05-19T02:07:26.521Z,9.21
2023-05-19T02:10:16.546Z,9.17
2023-05-19T02:12:45.780Z,9.15
2023-05-19T02:15:23.304Z,9.12
2023-05-19T02:17:51.322Z,9.12
2023-05-19T02:20:18.634Z,9.12
2023-05-19T02:22:45.593Z,9.06
2023-05-19T02:25:11.995Z,9.09
2023-05-19T02:27:39.005Z,9.07
2023-05-19T02:30:07.151Z,9.06
2023-05-19T02:32:34.021Z,9.06
2023-05-19T02:35:00.542Z,9.05
2023-05-19T02:37:26.909Z,9.05
2023-05-19T02:39:53.327Z,9.00
2023-05-19T02:42:19.849Z,8.97
2023-05-19T02:44:46.509Z,8.95
2023-05-19T02:47:13.424Z,8.99
2023-05-19T02:49:40.058Z,8.98
2023-05-19T02:52:06.778Z,9.05
2023-05-19T02:54:34.518Z,8.98
2023-05-19T02:57:01.700Z,9.01
2023-05-19T02:59:28.252Z,8.95
2023-05-19T03:02:01.115Z,9.00
2023-05-19T03:04:28.250Z,9.04
2023-05-19T03:06:54.795Z,9.01
2023-05-19T03:09:21.333Z,9.03
2023-05-19T03:11:47.693Z,9.05
2023-05-19T03:14:14.418Z,9.06
2023-05-19T03:16:41.794Z,9.04
2023-05-19T03:19:08.953Z,8.97
2023-05-19T03:21:35.745Z,9.03
2023-05-19T03:24:02.549Z,8.97
2023-05-19T03:26:28.940Z,9.01
2023-05-19T03:28:55.590Z,8.99
2023-05-19T03:31:21.952Z,9.04
2023-05-19T03:33:48.499Z,8.94
2023-05-19T03:36:14.848Z,8.99
2023-05-19T03:38:41.204Z,8.96
2023-05-19T03:41:07.614Z,8.94
2023-05-19T03:43:33.967Z,8.85
2023-05-19T03:46:00.436Z,8.86
2023-05-19T03:48:26.951Z,8.84
2023-05-19T03:50:53.308Z,8.86
2023-05-19T03:53:20.014Z,8.84
2023-05-19T03:55:46.647Z,8.87
2023-05-19T03:58:12.990Z,8.90
2023-05-19T04:00:39.680Z,8.89
2023-05-19T04:03:06.206Z,8.91
2023-05-19T04:05:32.852Z,8.93
2023-05-19T04:07:59.199Z,8.88
2023-05-19T04:10:25.631Z,8.85
2023-05-19T04:12:51.984Z,8.85
2023-05-19T04:15:18.440Z,8.81
2023-05-19T04:17:44.923Z,8.82
2023-05-19T04:20:11.900Z,8.83
2023-05-19T04:22:38.315Z,8.86
2023-05-19T04:25:05.315Z,8.83
2023-05-19T04:27:31.758Z,8.84
2023-05-19T04:29:58.351Z,8.81
2023-05-19T04:32:24.958Z,8.85
2023-05-19T04:34:51.345Z,8.88
2023-05-19T04:37:17.707Z,8.93
2023-05-19T04:39:44.510Z,8.94
2023-05-19T04:42:11.283Z,8.98
2023-05-19T04:44:40.766Z,9.01
2023-05-19T04:47:08.558Z,8.97
2023-05-19T04:49:35.709Z,8.97
2023-05-19T04:52:02.057Z,9.06
2023-05-19T04:54:28.433Z,9.01
2023-05-19T04:56:54.857Z,8.98
2023-05-19T04:59:22.477Z,9.07
2023-05-19T05:01:49.026Z,9.05
2023-05-19T05:04:15.684Z,9.11
2023-05-19T05:06:42.412Z,9.20
2023-05-19T05:09:09.126Z,9.24
2023-05-19T05:11:35.896Z,9.29
2023-05-19T05:14:02.914Z,9.33
2023-05-19T05:16:29.759Z,9.36
2023-05-19T05:18:56.466Z,9.41
2023-05-19T05:21:23.714Z,9.51
2023-05-19T05:23:51.592Z,9.52
2023-05-19T05:26:19.607Z,9.60
2023-05-19T05:28:45.979Z,9.65
2023-05-19T05:31:12.405Z,9.66
2023-05-19T05:33:39.447Z,9.70
2023-05-19T05:36:06.496Z,9.78
2023-05-19T05:38:33.036Z,9.82
2023-05-19T05:40:59.378Z,9.90
2023-05-19T05:43:25.904Z,9.96
2023-05-19T05:45:53.927Z,10.02
2023-05-19T05:48:20.720Z,10.09
2023-05-19T05:50:49.430Z,10.18
2023-05-19T05:53:19.689Z,10.25
2023-05-19T05:55:47.632Z,10.42
2023-05-19T05:58:14.089Z,10.50
2023-05-19T06:00:40.920Z,10.56
2023-05-19T06:03:07.839Z,10.60
2023-05-19T06:05:34.763Z,10.68
2023-05-19T06:08:01.616Z,10.80
2023-05-19T06:10:28.914Z,10.88
2023-05-19T06:12:55.787Z,10.95
2023-05-19T06:15:22.495Z,11.00
2023-05-19T06:17:50.262Z,11.14
2023-05-19T06:20:18.089Z,11.20
2023-05-19T06:22:44.504Z,11.23
2023-05-19T06:25:10.941Z,11.34
2023-05-19T06:27:37.387Z,11.39
2023-05-19T06:30:04.040Z,11.61
2023-05-19T06:32:30.660Z,11.71
2023-05-19T06:34:57.345Z,11.91
2023-05-19T06:37:24.417Z,11.99
2023-05-19T06:39:52.864Z,12.06
2023-05-19T06:42:20.772Z,12.19
2023-05-19T06:44:47.128Z,12.23
2023-05-19T06:47:13.575Z,12.38
2023-05-19T06:49:40.136Z,12.45
2023-05-19T06:52:06.740Z,12.62
2023-05-19T06:54:33.147Z,12.79
2023-05-19T06:56:59.778Z,12.93
2023-05-19T06:59:26.221Z,13.17
2023-05-19T07:01:52.618Z,13.46
2023-05-19T07:04:20.776Z,13.44
2023-05-19T07:06:47.157Z,13.57
2023-05-19T07:09:13.517Z,13.63
2023-05-19T07:11:40.353Z,13.69
2023-05-19T07:14:06.717Z,13.71
2023-05-19T07:16:33.384Z,13.62
2023-05-19T07:19:00.432Z,13.57
2023-05-19T07:21:26.861Z,13.63
2023-05-19T07:23:53.416Z,13.80
2023-05-19T07:26:19.994Z,13.88
2023-05-19T07:28:46.684Z,13.85
2023-05-19T07:31:13.052Z,13.83
2023-05-19T07:33:39.663Z,13.93
2023-05-19T07:36:06.429Z,13.98
2023-05-19T07:38:33.207Z,14.01
2023-05-19T07:41:00.839Z,14.14
2023-05-19T07:43:27.208Z,14.58
2023-05-19T07:45:53.771Z,14.36
2023-05-19T07:48:20.345Z,14.46
2023-05-19T07:50:47.496Z,14.50
2023-05-19T07:53:14.091Z,14.62
2023-05-19T07:55:40.526Z,14.78
2023-05-19T07:58:07.501Z,14.88
2023-05-19T08:00:34.533Z,15.18
2023-05-19T08:03:01.066Z,15.43
2023-05-19T08:05:27.614Z,15.67
2023-05-19T08:07:55.083Z,15.79
2023-05-19T08:10:21.491Z,15.88
2023-05-19T08:12:48.070Z,16.32
2023-05-19T08:15:14.450Z,16.59
2023-05-19T08:17:40.836Z,16.85
2023-05-19T08:20:08.072Z,17.16
2023-05-19T08:22:34.881Z,17.51
2023-05-19T08:25:01.295Z,17.91
2023-05-19T08:27:28.018Z,17.91
2023-05-19T08:29:54.813Z,18.44
2023-05-19T08:32:21.639Z,18.94
2023-05-19T08:34:48.021Z,18.84
2023-05-19T08:37:14.729Z,19.12
2023-05-19T08:39:41.621Z,19.33
2023-05-19T08:42:08.187Z,19.07
2023-05-19T08:44:34.650Z,19.37
2023-05-19T08:47:03.698Z,19.03
2023-05-19T08:49:34.121Z,19.34
2023-05-19T08:52:09.758Z,18.90
2023-05-19T08:54:43.592Z,18.47
2023-05-19T08:57:10.380Z,18.62
2023-05-19T08:59:38.119Z,18.64
2023-05-19T09:02:05.152Z,18.75
2023-05-19T09:04:32.502Z,19.33
2023-05-19T09:06:59.368Z,19.50
2023-05-19T09:09:25.816Z,19.67
2023-05-19T09:11:52.732Z,20.03
2023-05-19T09:14:19.186Z,20.24
2023-05-19T09:16:46.043Z,20.45
2023-05-19T09:19:14.031Z,20.99
2023-05-19T09:21:40.491Z,21.60
2023-05-19T09:24:08.326Z,21.71
2023-05-19T09:26:42.716Z,21.99
2023-05-19T09:29:13.612Z,21.87
2023-05-19T09:31:47.626Z,22.05
2023-05-19T09:34:14.114Z,22.52
2023-05-19T09:36:41.440Z,22.61
2023-05-19T09:39:17.625Z,22.95
2023-05-19T09:41:44.996Z,22.90
2023-05-19T09:44:25.306Z,22.87
2023-05-19T09:46:52.930Z,22.49
2023-05-19T09:49:30.494Z,22.31
2023-05-19T09:51:58.825Z,22.10
2023-05-19T09:54:26.308Z,21.50
2023-05-19T09:57:00.508Z,21.19
2023-05-19T09:59:31.347Z,20.91
2023-05-19T10:01:59.996Z,20.91
2023-05-19T10:04:28.590Z,21.05
2023-05-19T10:06:57.302Z,21.17
2023-05-19T10:09:24.787Z,21.16
2023-05-19T10:11:56.263Z,21.11
2023-05-19T10:14:24.379Z,21.21
2023-05-19T10:16:52.062Z,21.49
2023-05-19T10:19:22.740Z,21.55
2023-05-19T10:21:50.270Z,22.11
2023-05-19T10:24:16.983Z,21.98
2023-05-19T10:26:46.837Z,21.97
2023-05-19T10:29:16.177Z,21.57
2023-05-19T10:31:45.439Z,21.69
2023-05-19T10:34:34.854Z,21.20
2023-05-19T10:37:34.056Z,21.14
2023-05-19T10:40:00.954Z,20.86
2023-05-19T10:42:40.604Z,21.06
2023-05-19T10:45:18.544Z,21.11
2023-05-19T10:47:45.475Z,20.64
2023-05-19T10:50:12.377Z,20.35
2023-05-19T10:52:40.334Z,20.27
2023-05-19T10:55:13.243Z,20.56
2023-05-19T10:57:53.807Z,20.58
2023-05-19T11:00:32.204Z,20.36
2023-05-19T11:03:17.650Z,19.86
2023-05-19T11:05:44.419Z,19.67
2023-05-19T11:08:11.530Z,19.82
2023-05-19T11:10:38.788Z,19.86
2023-05-19T11:13:06.471Z,19.62
2023-05-19T11:15:36.339Z,19.46
2023-05-19T11:18:04.816Z,19.17
2023-05-19T11:20:31.312Z,19.37
2023-05-19T11:23:17.064Z,19.23
2023-05-19T11:25:50.750Z,19.11
2023-05-19T11:28:19.982Z,19.22
2023-05-19T11:30:48.067Z,18.97
2023-05-19T11:33:14.837Z,18.95
2023-05-19T11:35:42.136Z,19.02
2023-05-19T11:38:08.835Z,19.20
2023-05-19T11:40:35.549Z,19.30
2023-05-19T11:43:02.178Z,19.32
2023-05-19T11:45:31.605Z,19.21
2023-05-19T11:48:02.553Z,19.21
2023-05-19T11:50:31.755Z,19.50
2023-05-19T11:53:01.054Z,19.19
2023-05-19T11:55:27.999Z,19.27
2023-05-19T11:58:03.919Z,19.49
2023-05-19T12:00:36.445Z,19.39
2023-05-19T12:03:03.248Z,19.88
2023-05-19T12:05:30.157Z,19.64
2023-05-19T12:07:56.916Z,19.75
2023-05-19T12:10:24.416Z,19.90
2023-05-19T12:12:51.506Z,19.86
2023-05-19T12:15:22.572Z,20.00
2023-05-19T12:18:00.183Z,19.66
2023-05-19T12:20:29.656Z,19.50
2023-05-19T12:22:56.172Z,19.48
2023-05-19T12:25:23.862Z,19.66
2023-05-19T12:27:50.547Z,19.80
2023-05-19T12:30:17.175Z,19.82
2023-05-19T12:32:43.862Z,19.84
2023-05-19T12:35:10.910Z,19.88
2023-05-19T12:37:41.631Z,19.84
2023-05-19T12:40:10.029Z,20.02
2023-05-19T12:42:36.394Z,20.22
2023-05-19T12:45:04.453Z,20.26
2023-05-19T12:47:32.986Z,20.17
2023-05-19T12:49:59.695Z,20.18
2023-05-19T12:52:27.550Z,20.34
2023-05-19T12:55:00.506Z,20.33
2023-05-19T12:57:27.982Z,20.27
2023-05-19T13:00:00.934Z,20.40
2023-05-19T13:02:27.851Z,20.43
2023-05-19T13:04:54.593Z,20.20
2023-05-19T13:07:20.990Z,20.09
2023-05-19T13:09:47.343Z,19.93
2023-05-19T13:12:13.798Z,20.02
2023-05-19T13:14:40.220Z,19.90
2023-05-19T13:17:06.712Z,20.03
2023-05-19T13:19:33.235Z,19.98
2023-05-19T13:21:59.752Z,19.75
2023-05-19T13:24:26.090Z,19.75
2023-05-19T13:26:53.860Z,19.81
2023-05-19T13:29:20.376Z,19.86
2023-05-19T13:31:46.726Z,19.99
2023-05-19T13:34:13.255Z,20.02
2023-05-19T13:36:39.624Z,20.00
2023-05-19T13:39:06.364Z,19.99
2023-05-19T13:41:32.697Z,19.78
2023-05-19T13:43:59.174Z,19.83
2023-05-19T13:46:36.763Z,19.63
2023-05-19T13:49:10.876Z,19.64
2023-05-19T13:51:37.313Z,19.79
2023-05-19T13:54:03.731Z,19.76
2023-05-19T13:56:30.219Z,19.78
2023-05-19T13:58:56.565Z,19.76
2023-05-19T14:01:22.948Z,19.98
2023-05-19T14:03:49.791Z,19.76
2023-05-19T14:06:16.570Z,19.91
2023-05-19T14:08:43.288Z,19.89
2023-05-19T14:11:09.634Z,19.92
2023-05-19T14:13:39.114Z,20.36
2023-05-19T14:16:08.482Z,20.33
2023-05-19T14:18:34.992Z,19.98
2023-05-19T14:21:01.428Z,19.98
2023-05-19T14:23:27.785Z,20.16
2023-05-19T14:25:54.227Z,20.16
2023-05-19T14:28:20.797Z,19.88
2023-05-19T14:30:47.939Z,19.67
2023-05-19T14:33:14.765Z,19.57
2023-05-19T14:35:41.166Z,19.76
2023-05-19T14:38:07.792Z,19.90
2023-05-19T14:40:36.962Z,19.54
2023-05-19T14:43:03.513Z,19.39
2023-05-19T14:45:29.879Z,19.39
2023-05-19T14:47:56.374Z,19.64
2023-05-19T14:50:22.778Z,19.67
2023-05-19T14:52:49.286Z,19.91
2023-05-19T14:55:15.909Z,20.01
2023-05-19T14:57:42.319Z,19.87
2023-05-19T15:00:09.358Z,19.75
2023-05-19T15:02:36.476Z,19.77
2023-05-19T15:05:03.030Z,19.96
2023-05-19T15:07:29.390Z,20.09
2023-05-19T15:09:55.817Z,19.70
2023-05-19T15:12:22.275Z,19.95
2023-05-19T15:14:48.956Z,19.94
2023-05-19T15:17:15.430Z,19.91
2023-05-19T15:19:41.925Z,19.79
2023-05-19T15:22:08.776Z,20.19
2023-05-19T15:24:35.260Z,20.14
2023-05-19T15:27:02.268Z,20.41
2023-05-19T15:29:28.717Z,20.79
2023-05-19T15:31:55.146Z,21.11
2023-05-19T15:34:21.750Z,20.97
2023-05-19T15:36:48.233Z,20.91
2023-05-19T15:39:14.677Z,20.71
2023-05-19T15:41:41.042Z,20.55
2023-05-19T15:44:07.477Z,20.19
2023-05-19T15:46:34.271Z,20.51
2023-05-19T15:49:00.967Z,20.27
2023-05-19T15:51:27.917Z,19.96
2023-05-19T15:53:54.322Z,19.79
2023-05-19T15:56:21.024Z,19.63
2023-05-19T15:58:47.553Z,19.51
2023-05-19T16:01:16.043Z,19.29
2023-05-19T16:03:42.786Z,19.40
2023-05-19T16:06:09.601Z,19.22
2023-05-19T16:08:35.962Z,19.17
2023-05-19T16:11:02.326Z,19.14
2023-05-19T16:13:28.744Z,19.16
2023-05-19T16:15:55.335Z,19.09
2023-05-19T16:18:21.703Z,19.15
2023-05-19T16:20:48.304Z,19.15
2023-05-19T16:23:14.639Z,19.31
2023-05-19T16:25:41.413Z,19.27
2023-05-19T16:28:08.117Z,19.21
2023-05-19T16:30:34.694Z,19.32
2023-05-19T16:33:01.203Z,19.36
2023-05-19T16:35:27.699Z,19.57
2023-05-19T16:37:54.204Z,19.51
2023-05-19T16:40:20.585Z,19.56
2023-05-19T16:42:47.216Z,19.41
2023-05-19T16:45:13.645Z,19.27
2023-05-19T16:47:40.105Z,19.34
2023-05-19T16:50:07.322Z,19.32
2023-05-19T16:52:34.014Z,19.25
2023-05-19T16:55:00.376Z,19.25
2023-05-19T16:57:26.760Z,19.18
2023-05-19T16:59:53.506Z,19.23
2023-05-19T17:02:19.863Z,19.07
2023-05-19T17:04:46.225Z,18.91
2023-05-19T17:07:13.531Z,18.84
2023-05-19T17:09:39.882Z,18.81
2023-05-19T17:12:06.655Z,18.63
2023-05-19T17:14:33.005Z,18.59
2023-05-19T17:16:59.745Z,18.59
2023-05-19T17:19:26.374Z,18.55
2023-05-19T17:21:53.057Z,18.54
2023-05-19T17:24:19.464Z,18.57
2023-05-19T17:26:46.046Z,18.51
2023-05-19T17:29:12.401Z,18.56
2023-05-19T17:31:38.901Z,18.65
2023-05-19T17:34:05.382Z,18.82
2023-05-19T17:36:31.729Z,18.93
2023-05-19T17:38:58.149Z,18.91
2023-05-19T17:41:25.089Z,18.94
2023-05-19T17:43:51.810Z,18.83
2023-05-19T17:46:18.577Z,18.73
2023-05-19T17:48:45.011Z,18.70
2023-05-19T17:51:11.856Z,18.50
2023-05-19T17:53:38.476Z,18.30
2023-05-19T17:56:06.224Z,18.19
2023-05-19T17:58:33.009Z,18.05
2023-05-19T18:00:59.776Z,18.01
2023-05-19T18:03:26.506Z,17.86
2023-05-19T18:05:53.318Z,17.84
2023-05-19T18:08:21.176Z,17.70
2023-05-19T18:10:47.840Z,17.70
2023-05-19T18:13:14.256Z,17.61
2023-05-19T18:15:40.637Z,17.63
2023-05-19T18:18:07.138Z,17.60
2023-05-19T18:20:37.189Z,17.54
2023-05-19T18:23:03.999Z,17.47
2023-05-19T18:25:30.467Z,17.37
2023-05-19T18:27:56.836Z,17.25
2023-05-19T18:30:23.374Z,17.22
2023-05-19T18:32:49.821Z,17.16
2023-05-19T18:35:16.413Z,17.16
2023-05-19T18:37:42.831Z,17.02
2023-05-19T18:40:09.991Z,17.11
2023-05-19T18:42:36.411Z,17.00
2023-05-19T18:45:03.228Z,16.97
2023-05-19T18:47:29.675Z,16.85
2023-05-19T18:49:56.079Z,16.87
2023-05-19T18:52:22.513Z,16.86
2023-05-19T18:54:48.879Z,16.98
2023-05-19T18:57:15.294Z,16.85
2023-05-19T18:59:41.627Z,16.71
2023-05-19T19:02:07.985Z,16.61
2023-05-19T19:04:34.461Z,16.56
2023-05-19T19:07:01.152Z,16.56
2023-05-19T19:09:27.716Z,16.65
2023-05-19T19:11:54.074Z,16.57
2023-05-19T19:14:20.668Z,16.51
2023-05-19T19:16:47.110Z,16.39
2023-05-19T19:19:13.821Z,16.46
2023-05-19T19:21:41.342Z,16.42
2023-05-19T19:24:07.702Z,16.36
2023-05-19T19:26:34.132Z,16.23
2023-05-19T19:29:00.486Z,16.19
2023-05-19T19:31:27.355Z,16.10
2023-05-19T19:33:53.823Z,16.06
2023-05-19T19:36:20.434Z,16.03
2023-05-19T19:38:46.887Z,15.91
2023-05-19T19:41:13.288Z,15.89
2023-05-19T19:43:39.813Z,15.82
2023-05-19T19:46:06.179Z,15.85
2023-05-19T19:48:32.869Z,15.77
2023-05-19T19:50:59.356Z,15.71
2023-05-19T19:53:25.722Z,15.64
2023-05-19T19:56:02.229Z,15.56
2023-05-19T19:58:29.131Z,15.47
2023-05-19T20:00:59.971Z,15.34
2023-05-19T20:03:26.669Z,15.21
2023-05-19T20:05:54.956Z,15.20
2023-05-19T20:08:21.997Z,15.10
2023-05-19T20:10:48.515Z,15.07
2023-05-19T20:13:15.920Z,15.04
2023-05-19T20:15:43.391Z,14.98
2023-05-19T20:18:10.434Z,14.99
2023-05-19T20:20:37.716Z,14.99
2023-05-19T20:23:04.089Z,14.92
2023-05-19T20:25:30.781Z,14.92
2023-05-19T20:27:57.155Z,14.88
2023-05-19T20:30:23.879Z,14.96
2023-05-19T20:32:50.328Z,14.85
2023-05-19T20:35:16.768Z,14.86
2023-05-19T20:37:43.189Z,14.83
2023-05-19T20:40:09.770Z,14.85
2023-05-19T20:42:38.842Z,14.88
2023-05-19T20:45:05.732Z,14.89
2023-05-19T20:47:32.292Z,14.90
2023-05-19T20:49:58.693Z,14.82
2023-05-19T20:52:25.418Z,14.84
2023-05-19T20:54:51.766Z,14.90
2023-05-19T20:57:18.208Z,14.91
2023-05-19T20:59:44.630Z,14.96
2023-05-19T21:02:11.041Z,14.99
2023-05-19T21:04:38.661Z,14.88
2023-05-19T21:07:05.293Z,14.85
2023-05-19T21:09:31.675Z,14.91
2023-05-19T21:11:58.371Z,14.91
2023-05-19T21:14:24.789Z,14.86
2023-05-19T21:16:52.662Z,14.87
2023-05-19T21:19:19.579Z,15.01
2023-05-19T21:21:46.534Z,14.96
2023-05-19T21:24:14.118Z,15.07
2023-05-19T21:26:41.319Z,15.12
2023-05-19T21:29:08.656Z,15.07
2023-05-19T21:31:35.732Z,15.06
2023-05-19T21:34:03.012Z,15.04
2023-05-19T21:36:29.448Z,15.10
2023-05-19T21:38:56.299Z,15.06
2023-05-19T21:41:22.661Z,15.18
2023-05-19T21:43:49.078Z,15.20
2023-05-19T21:46:15.621Z,15.17
2023-05-19T21:48:42.067Z,15.17
2023-05-19T21:51:08.404Z,14.99
2023-05-19T21:53:34.755Z,15.00
2023-05-19T21:56:01.289Z,15.07
2023-05-19T21:58:27.649Z,15.21
2023-05-19T22:00:54.377Z,15.18
2023-05-19T22:03:21.209Z,15.22
2023-05-19T22:05:51.839Z,15.20
2023-05-19T22:08:19.513Z,15.19
2023-05-19T22:10:49.144Z,15.14
2023-05-19T22:13:15.894Z,14.99
2023-05-19T22:15:42.377Z,14.98
2023-05-19T22:18:08.797Z,15.10
2023-05-19T22:20:35.356Z,15.05
2023-05-19T22:23:01.817Z,15.03
2023-05-19T22:25:28.172Z,14.93
2023-05-19T22:27:54.862Z,15.03
2023-05-19T22:30:21.591Z,14.94
2023-05-19T22:32:48.078Z,14.88
2023-05-19T22:35:14.767Z,14.83
2023-05-19T22:37:41.476Z,14.79
2023-05-19T22:40:08.204Z,14.87
2023-05-19T22:42:34.559Z,14.78
2023-05-19T22:45:00.978Z,14.75
2023-05-19T22:47:27.353Z,14.75
2023-05-19T22:49:54.959Z,14.67
2023-05-19T22:52:23.636Z,14.69
2023-05-19T22:54:50.253Z,14.79
2023-05-19T22:57:17.189Z,14.73
2023-05-19T22:59:43.592Z,14.68
2023-05-19T23:02:10.410Z,14.82
2023-05-19T23:04:36.790Z,14.84
2023-05-19T23:07:03.347Z,14.70
2023-05-19T23:09:29.715Z,14.55
2023-05-19T23:11:56.356Z,14.49
2023-05-19T23:14:22.789Z,14.76
2023-05-19T23:16:49.237Z,14.69
2023-05-19T23:19:15.746Z,14.74
2023-05-19T23:21:42.155Z,14.89
2023-05-19T23:24:08.559Z,14.71
2023-05-19T23:26:34.964Z,14.56
2023-05-19T23:29:01.316Z,14.66
2023-05-19T23:31:27.789Z,14.78
2023-05-19T23:33:54.222Z,14.95
2023-05-19T23:36:20.790Z,14.82
2023-05-19T23:38:47.140Z,14.79
2023-05-19T23:41:13.588Z,14.69
2023-05-19T23:43:39.928Z,14.81
2023-05-19T23:46:06.477Z,14.67
2023-05-19T23:48:32.904Z,14.57
2023-05-19T23:50:59.587Z,14.58
2023-05-19T23:53:26.025Z,14.75
2023-05-19T23:55:52.520Z,14.56
2023-05-19T23:58:18.937Z,14.53
